createdAt,value
2022-09-06T00:05:51.245Z,99344.68
2022-09-06T00:11:37.139Z,99346.05
2022-09-06T00:17:33.901Z,99345.95
2022-09-06T00:24:21.268Z,99341.90
2022-09-06T00:30:34.770Z,99341.36
2022-09-06T00:36:28.656Z,99339.02
2022-09-06T00:42:48.724Z,99342.98
2022-09-06T00:49:04.234Z,99338.77
2022-09-06T00:54:54.611Z,99338.45
2022-09-06T01:01:13.727Z,99333.20
2022-09-06T01:08:01.901Z,99332.64
2022-09-06T01:14:55.155Z,99339.96
2022-09-06T01:21:14.631Z,99334.27
2022-09-06T01:28:16.519Z,99335.98
2022-09-06T01:34:56.807Z,99327.49
2022-09-06T01:41:31.315Z,99321.33
2022-09-06T01:48:25.461Z,99313.86
2022-09-06T01:55:19.278Z,99316.27
2022-09-06T02:02:09.961Z,99307.36
2022-09-06T02:08:33.413Z,99299.60
2022-09-06T02:14:36.534Z,99306.27
2022-09-06T02:21:05.950Z,99299.20
2022-09-06T02:27:17.471Z,99304.50
2022-09-06T02:33:03.753Z,99310.32
2022-09-06T02:39:18.199Z,99303.17
2022-09-06T02:45:15.280Z,99304.44
2022-09-06T02:51:37.984Z,99298.73
2022-09-06T02:57:23.268Z,99306.56
2022-09-06T03:04:13.706Z,99312.92
2022-09-06T03:10:21.119Z,99304.44
2022-09-06T03:16:59.283Z,99302.15
2022-09-06T03:23:29.628Z,99298.39
2022-09-06T03:29:43.406Z,99297.33
2022-09-06T03:36:20.863Z,99296.44
2022-09-06T03:42:29.330Z,99292.62
2022-09-06T03:49:31.704Z,99299.20
2022-09-06T03:56:14.694Z,99297.11
2022-09-06T04:02:38.639Z,99305.78
2022-09-06T04:09:00.055Z,99298.23
2022-09-06T04:15:06.499Z,99293.63
2022-09-06T04:21:27.867Z,99296.79
2022-09-06T04:27:10.276Z,99295.48
2022-09-06T04:33:36.769Z,99285.16
2022-09-06T04:39:50.267Z,99293.61
2022-09-06T04:46:16.528Z,99307.61
2022-09-06T04:52:24.294Z,99314.17
2022-09-06T04:59:20.315Z,99310.05
2022-09-06T05:05:36.060Z,99304.78
2022-09-06T05:11:18.574Z,99304.95
2022-09-06T05:16:36.149Z,99297.06
2022-09-06T05:22:13.096Z,99287.28
2022-09-06T05:27:36.651Z,99287.47
2022-09-06T05:32:51.417Z,99288.91
2022-09-06T05:38:32.420Z,99298.55
2022-09-06T05:43:44.195Z,99297.06
2022-09-06T05:49:25.374Z,99297.33
2022-09-06T05:55:04.464Z,99301.26
2022-09-06T06:00:56.404Z,99302.12
2022-09-06T06:06:00.988Z,99306.96
2022-09-06T06:11:03.219Z,99301.85
2022-09-06T06:16:11.730Z,99300.17
2022-09-06T06:21:37.393Z,99298.09
2022-09-06T06:26:42.559Z,99303.73
2022-09-06T06:31:45.407Z,99313.45
2022-09-06T06:37:01.258Z,99322.41
2022-09-06T06:42:03.723Z,99324.27
2022-09-06T06:47:42.911Z,99332.36
2022-09-06T06:52:45.286Z,99336.70
2022-09-06T06:57:50.658Z,99334.68
2022-09-06T07:02:56.384Z,99337.36
2022-09-06T07:08:02.133Z,99330.29
2022-09-06T07:13:09.900Z,99322.87
2022-09-06T07:18:23.495Z,99330.11
2022-09-06T07:29:01.021Z,99342.05
2022-09-06T07:34:33.345Z,99333.34
2022-09-06T07:39:53.474Z,99332.11
2022-09-06T07:45:25.693Z,99330.80
2022-09-06T07:50:52.617Z,99336.69
2022-09-06T07:56:12.361Z,99332.19
2022-09-06T08:01:47.705Z,99339.17
2022-09-06T08:13:02.000Z,99338.11
2022-09-06T08:18:35.366Z,99342.20
2022-09-06T08:23:49.615Z,99345.39
2022-09-06T08:29:10.895Z,99338.33
2022-09-06T08:34:14.452Z,99329.48
2022-09-06T08:39:47.443Z,99327.21
2022-09-06T08:45:12.548Z,99330.69
2022-09-06T08:50:59.680Z,99321.61
2022-09-06T08:57:18.368Z,99319.92
2022-09-06T09:02:46.839Z,99319.36
2022-09-06T09:08:33.396Z,99325.78
2022-09-06T09:14:43.362Z,99317.02
2022-09-06T09:20:08.423Z,99312.66
2022-09-06T09:25:39.331Z,99306.16
2022-09-06T09:30:56.932Z,99299.23
2022-09-06T09:36:15.223Z,99289.50
2022-09-06T09:41:52.322Z,99278.58
2022-09-06T09:47:30.556Z,99276.87
2022-09-06T09:52:53.268Z,99275.66
2022-09-06T09:58:04.996Z,99267.40
2022-09-06T10:09:45.163Z,99263.90
2022-09-06T10:15:07.055Z,99260.14
2022-09-06T10:20:25.542Z,99260.05
2022-09-06T10:26:05.003Z,99262.44
2022-09-06T10:31:36.682Z,99255.22
2022-09-06T10:36:48.439Z,99255.55
2022-09-06T10:42:29.509Z,99257.27
2022-09-06T10:47:54.984Z,99259.97
2022-09-06T10:53:13.299Z,99261.39
2022-09-06T11:11:15.737Z,99244.45
2022-09-06T11:17:04.945Z,99247.23
2022-09-06T11:22:58.684Z,99246.75
2022-09-06T11:28:18.472Z,99240.33
2022-09-06T11:34:01.496Z,99230.94
2022-09-06T11:45:43.233Z,99206.44
2022-09-06T11:51:29.190Z,99202.23
2022-09-06T11:57:09.359Z,99194.33
2022-09-06T12:02:49.016Z,99188.27
2022-09-06T12:08:19.002Z,99191.92
2022-09-06T12:14:09.484Z,99187.52
2022-09-06T12:19:49.691Z,99177.11
2022-09-06T12:25:16.485Z,99172.82
2022-09-06T12:30:57.511Z,99169.23
2022-09-06T12:36:24.870Z,99169.89
2022-09-06T12:41:38.373Z,99168.11
2022-09-06T12:46:49.004Z,99168.71
2022-09-06T12:52:12.927Z,99168.01
2022-09-06T12:57:27.619Z,99164.12
2022-09-06T13:03:19.472Z,99154.29
2022-09-06T13:08:47.612Z,99155.11
2022-09-06T13:13:54.986Z,99143.98
2022-09-06T13:19:25.923Z,99136.40
2022-09-06T13:24:37.419Z,99129.33
2022-09-06T13:30:00.463Z,99125.90
2022-09-06T13:35:03.932Z,99124.33
2022-09-06T13:41:10.596Z,99121.45
2022-09-06T13:46:14.836Z,99117.73
2022-09-06T13:51:18.415Z,99111.69
2022-09-06T13:56:29.021Z,99112.48
2022-09-06T14:01:58.577Z,99107.71
2022-09-06T14:07:49.486Z,99106.77
2022-09-06T14:13:15.931Z,99100.20
2022-09-06T14:18:32.557Z,99097.17
2022-09-06T14:23:44.183Z,99088.55
2022-09-06T14:29:13.130Z,99084.84
2022-09-06T14:34:42.511Z,99073.52
2022-09-06T14:40:16.645Z,99073.66
2022-09-06T14:45:25.561Z,99070.49
2022-09-06T14:50:31.543Z,99070.27
2022-09-06T14:55:39.763Z,99071.23
2022-09-06T15:01:28.593Z,99073.77
2022-09-06T15:06:49.224Z,99071.42
2022-09-06T15:12:04.669Z,99074.79
2022-09-06T15:17:35.582Z,99070.71
2022-09-06T15:23:24.856Z,99066.29
2022-09-06T15:28:53.193Z,99071.44
2022-09-06T15:33:58.497Z,99071.20
2022-09-06T15:39:14.710Z,99067.25
2022-09-06T15:44:26.627Z,99071.16
2022-09-06T15:49:36.383Z,99063.53
2022-09-06T15:55:01.739Z,99058.33
2022-09-06T16:00:09.722Z,99041.19
2022-09-06T16:05:14.848Z,99044.02
2022-09-06T16:10:38.678Z,99039.66
2022-09-06T16:15:43.206Z,99040.29
2022-09-06T16:20:48.220Z,99033.87
2022-09-06T16:26:10.204Z,99034.58
2022-09-06T16:31:40.373Z,99032.50
2022-09-06T16:37:07.982Z,99038.04
2022-09-06T16:42:48.035Z,99035.08
2022-09-06T16:48:47.570Z,99035.04
2022-09-06T16:54:33.521Z,99030.61
2022-09-06T17:00:16.260Z,99019.87
2022-09-06T17:05:34.665Z,99017.35
2022-09-06T17:11:24.899Z,99013.63
2022-09-06T17:17:22.101Z,99011.23
2022-09-06T17:23:01.761Z,99010.38
2022-09-06T17:28:58.493Z,99009.52
2022-09-06T17:35:16.267Z,99020.52
2022-09-06T17:41:09.020Z,99028.52
2022-09-06T17:47:28.200Z,99033.65
2022-09-06T17:53:23.418Z,99031.37
2022-09-06T17:59:38.532Z,99030.45
2022-09-06T18:05:43.719Z,99029.04
2022-09-06T18:12:16.319Z,99039.63
2022-09-06T18:17:51.750Z,99034.64
2022-09-06T18:22:56.731Z,99034.45
2022-09-06T18:28:15.917Z,99027.68
2022-09-06T18:33:39.364Z,99035.98
2022-09-06T18:38:49.471Z,99044.84
2022-09-06T18:43:58.092Z,99046.39
2022-09-06T18:49:00.862Z,99048.28
2022-09-06T18:54:03.020Z,99046.73
2022-09-06T18:59:52.284Z,99054.38
2022-09-06T19:06:17.110Z,99048.92
2022-09-06T19:11:54.713Z,99040.73
2022-09-06T19:16:56.697Z,99031.42
2022-09-06T19:22:25.192Z,99029.71
2022-09-06T19:27:50.898Z,99024.98
2022-09-06T19:33:14.827Z,99023.69
2022-09-06T19:39:03.663Z,99016.98
2022-09-06T19:44:38.631Z,99015.13
2022-09-06T19:51:09.904Z,99007.42
2022-09-06T19:56:40.029Z,99001.91
2022-09-06T20:02:13.527Z,98998.40
2022-09-06T20:08:19.682Z,98993.73
2022-09-06T20:13:22.840Z,98986.09
2022-09-06T20:18:47.641Z,98976.55
2022-09-06T20:24:21.878Z,98986.96
2022-09-06T20:30:20.809Z,98994.63
2022-09-06T20:35:29.595Z,98992.02
2022-09-06T20:40:56.564Z,98994.95
2022-09-06T20:46:42.272Z,99003.70
2022-09-06T20:52:44.004Z,99007.90
2022-09-06T20:58:29.898Z,99005.95
2022-09-06T21:03:39.203Z,99003.33
2022-09-06T21:08:44.370Z,98999.77
2022-09-06T21:14:22.795Z,99001.47
2022-09-06T21:19:43.883Z,98995.15
2022-09-06T21:25:39.695Z,98982.36
2022-09-06T21:31:34.704Z,98964.92
2022-09-06T21:36:39.091Z,98972.44
2022-09-06T21:42:00.672Z,98974.02
2022-09-06T21:47:12.010Z,98974.08
2022-09-06T21:52:19.979Z,98972.18
2022-09-06T21:57:45.695Z,98970.66
2022-09-06T22:02:54.370Z,98971.66
2022-09-06T22:08:15.961Z,98974.96
2022-09-06T22:13:21.188Z,98970.20
2022-09-06T22:18:31.566Z,98957.56
2022-09-06T22:23:49.006Z,98956.02
2022-09-06T22:28:57.584Z,98957.34
2022-09-06T22:34:00.549Z,98961.59
2022-09-06T22:39:11.581Z,98957.66
2022-09-06T22:44:18.477Z,98953.02
2022-09-06T22:49:29.133Z,98951.11
2022-09-06T22:54:36.220Z,98957.91
2022-09-06T23:00:20.927Z,98956.14
2022-09-06T23:05:31.367Z,98954.05
2022-09-06T23:10:57.785Z,98956.23
2022-09-06T23:16:26.981Z,98951.83
2022-09-06T23:22:20.345Z,98945.48
2022-09-06T23:27:51.056Z,98946.38
2022-09-06T23:33:37.963Z,98939.07
2022-09-06T23:39:15.260Z,98935.02
2022-09-06T23:45:00.757Z,98924.52
2022-09-06T23:50:30.061Z,98916.51
2022-09-06T23:56:04.393Z,98911.19
